Latest Weather Observations for Gabo Island

IDN60801

Issued at 8:05 am EST Sunday 20 April 2014 (issued every 30 minutes, with the page automatically refreshed every 10 minutes)

About weather observations | Map of weather stations | Latest weather observations for NSW | Other Formats
Station Details ID: 084016 Name: GABO ISLAND LIGHTHOUSE Lat: -37.57 Lon: 149.92 Height: 15.2 m
Data from the previous 72 hours. | See also: Recent months at Gabo Island
Date/Time
EST
Temp
°C
App
Temp
°C
Dew
Point
Rel
Hum
%
Delta-T
°C
Wind Press
QNH
hPa
Press
MSL
hPa
Rain
since 9 am
mm
Dir
 
Spd
km/h
Gust
km/h
Spd
kts
Gust
kts
20/08:00am 14.1 11.1 7.6 65 3.2 NW 13 17 7 9 1017.6 - 0.6
20/07:30am 13.3 9.7 6.9 65 3.1 WNW 15 17 8 9 1017.3 - 0.6
20/07:00am 12.5 8.9 6.6 67 2.8 WNW 15 20 8 11 1017.0 - 0.6
20/06:30am 12.2 8.2 6.5 68 2.7 NW 17 20 9 11 1016.7 - 0.6
20/06:00am 11.8 8.3 7.0 72 2.3 WNW 15 22 8 12 1016.6 1016.5 0.6
20/05:30am 11.8 7.9 7.0 72 2.3 WNW 17 20 9 11 1016.3 - 0.6
20/05:00am 11.9 8.5 7.6 75 2.1 WNW 15 20 8 11 1016.5 - 0.6
20/04:30am 12.3 8.5 7.6 73 2.3 NW 17 20 9 11 1016.2 - 0.6
20/04:00am 12.4 8.7 7.9 74 2.2 WNW 17 22 9 12 1016.3 - 0.6
20/03:30am 12.4 9.1 7.9 74 2.2 NW 15 20 8 11 1016.4 - 0.6
20/03:00am 12.6 9.7 8.1 74 2.2 WNW 13 19 7 10 1016.5 1016.5 0.6
20/02:30am 13.0 9.8 8.4 73 2.3 WNW 15 20 8 11 1016.7 - 0.6
20/02:00am 13.3 9.3 8.3 72 2.5 WNW 19 26 10 14 1016.9 - 0.6
20/01:30am 13.2 9.7 8.6 73 2.3 NW 17 22 9 12 1017.1 - 0.6
20/01:00am 13.3 9.8 8.9 74 2.2 NW 17 22 9 12 1017.2 - 0.6
20/12:30am 13.8 8.7 9.1 73 2.4 W 26 37 14 20 1017.3 - 0.6
20/12:00am 13.2 9.9 9.7 79 1.8 NW 17 24 9 13 1017.4 1017.4 0.6
 
Date/Time
EST
Temp
°C
App
Temp
°C
Dew
Point
Rel
Hum
%
Delta-T
°C
Wind Press
QNH
hPa
Press
MSL
hPa
Rain
since 9 am
mm
Dir
 
Spd
km/h
Gust
km/h
Spd
kts
Gust
kts
19/11:30pm 13.1 9.4 10.2 82 1.5 WNW 20 26 11 14 1017.5 - 0.6
19/11:00pm 13.4 9.5 9.5 77 2.0 WNW 20 28 11 15 1017.6 - 0.6
19/10:30pm 13.4 9.8 9.7 78 1.9 NW 19 24 10 13 1017.7 - 0.6
19/10:00pm 13.6 9.7 9.3 75 2.2 WNW 20 30 11 16 1017.7 - 0.6
19/09:30pm 13.8 8.8 9.5 75 2.2 W 26 35 14 19 1017.6 - 0.6
19/09:00pm 14.2 8.6 10.2 77 2.1 W 30 35 16 19 1017.5 1017.5 0.6
19/08:30pm 14.2 8.3 10.6 79 1.9 W 32 41 17 22 1017.5 - 0.6
19/08:00pm 13.8 8.1 9.9 77 2.0 W 30 37 16 20 1017.3 - 0.6
19/07:30pm 14.1 7.6 10.5 79 1.9 WSW 35 46 19 25 1017.2 - 0.6
19/07:00pm 14.3 8.0 9.6 73 2.4 W 33 41 18 22 1017.0 - 0.6
19/06:30pm 13.8 8.0 9.5 75 2.2 W 30 41 16 22 1016.9 - 0.6
19/06:00pm 13.5 6.3 10.4 81 1.6 WSW 39 50 21 27 1016.7 1016.7 0.6
19/05:30pm 13.6 5.9 10.3 80 1.7 W 41 52 22 28 1016.3 - 0.6
19/05:00pm 13.5 6.3 10.6 82 1.5 WSW 39 56 21 30 1016.4 - 0.6
19/04:50pm 13.9 7.0 10.2 78 1.9 W 37 56 20 30 1016.4 - 0.6
19/04:30pm 13.7 6.4 10.2 79 1.8 W 39 48 21 26 1016.3 - 0.6
19/04:00pm 13.4 4.4 11.5 88 1.0 WSW 50 63 27 34 1016.4 - 0.6
19/03:46pm 13.4 5.6 11.7 89 0.9 WSW 44 63 24 34 1016.3 - 0.4
19/03:30pm 14.1 5.9 11.7 85 1.3 WSW 46 57 25 31 1016.4 - 0.2
19/03:10pm 15.4 7.4 8.9 65 3.3 WSW 41 59 22 32 1016.0 - 0.0
19/03:00pm 15.3 8.1 9.0 66 3.2 WSW 37 46 20 25 1016.0 1015.9 0.0
19/02:33pm 15.2 6.7 8.5 64 3.4 WSW 43 61 23 33 1015.7 - 0.0
19/02:30pm 15.5 8.0 9.3 66 3.2 WSW 39 50 21 27 1015.8 - 0.0
19/02:00pm 14.9 6.6 9.9 72 2.6 WSW 44 54 24 29 1015.8 - 0.0
19/01:30pm 15.8 7.2 10.3 70 2.9 WSW 46 56 25 30 1015.5 - 0.0
19/01:00pm 15.0 7.6 9.8 71 2.7 WSW 39 52 21 28 1015.7 - 0.0
19/12:47pm 14.7 6.9 9.7 72 2.6 WSW 41 59 22 32 1015.9 - 0.0
19/12:30pm 14.9 7.6 10.1 73 2.5 WSW 39 50 21 27 1016.0 - 0.0
19/12:12pm 15.8 7.7 9.9 68 3.1 WSW 43 61 23 33 1016.1 - 0.0
19/12:00pm 15.9 8.0 9.5 66 3.3 W 41 48 22 26 1016.1 1016.1 0.0
19/11:30am 15.5 7.1 9.5 67 3.1 WSW 44 54 24 29 1016.3 - 0.0
19/11:00am 15.7 7.3 9.5 66 3.2 WSW 44 56 24 30 1016.3 - 0.0
19/10:30am 15.1 7.3 9.9 71 2.7 WSW 41 52 22 28 1016.3 - 0.0
19/10:00am 14.3 5.5 9.4 72 2.5 W 46 56 25 30 1016.2 - 0.0
19/09:30am 14.2 6.1 9.9 75 2.2 W 43 54 23 29 1016.2 - 0.0
19/09:00am 13.5 5.7 9.6 77 2.0 W 41 50 22 27 1016.5 1016.4 2.0
19/08:30am 13.0 4.6 9.5 79 1.8 W 44 57 24 31 1016.3 - 2.0
19/08:00am 12.6 4.6 9.0 79 1.8 W 41 54 22 29 1016.2 - 2.0
19/07:30am 12.7 4.3 9.1 79 1.8 W 43 52 23 28 1015.8 - 2.0
19/07:00am 12.7 4.4 9.3 80 1.7 W 43 52 23 28 1015.6 - 2.0
19/06:30am 12.8 5.4 9.9 82 1.5 W 39 46 21 25 1015.3 - 2.0
19/06:00am 12.4 4.9 9.6 83 1.4 W 39 57 21 31 1015.1 1015.1 2.0
19/05:30am 12.8 3.9 9.2 79 1.8 W 46 57 25 31 1014.8 - 1.6
19/05:00am 12.7 4.5 9.8 82 1.5 W 43 54 23 29 1014.6 - 1.6
19/04:30am 12.5 3.4 9.8 83 1.4 W 48 59 26 32 1014.5 - 1.6
19/04:00am 12.5 4.2 9.5 82 1.5 W 43 56 23 30 1014.3 - 1.6
19/03:30am 12.4 4.6 9.6 83 1.4 W 41 54 22 29 1014.3 - 1.6
19/03:00am 12.7 3.3 10.0 84 1.4 W 50 61 27 33 1014.3 1014.3 1.6
19/02:30am 12.8 4.4 9.5 80 1.7 W 44 56 24 30 1014.5 - 1.6
19/02:00am 13.0 4.2 9.5 79 1.8 W 46 59 25 32 1014.4 - 1.6
19/01:37am 13.0 4.6 9.7 80 1.7 W 44 63 24 34 1014.7 - 1.6
19/01:30am 13.1 4.7 9.6 79 1.8 W 44 54 24 29 1014.8 - 1.6
19/01:00am 13.3 4.1 9.4 77 2.0 W 48 61 26 33 1014.5 - 1.6
19/12:30am 13.5 5.1 9.8 78 1.9 W 44 57 24 31 1014.6 - 1.6
19/12:11am 12.9 6.0 10.4 85 1.3 WSW 37 56 20 30 1014.7 - 1.6
19/12:00am 13.5 6.9 11.2 86 1.2 SW 37 46 20 25 1014.9 1015.1 1.6
 
Date/Time
EST
Temp
°C
App
Temp
°C
Dew
Point
Rel
Hum
%
Delta-T
°C
Wind Press
QNH
hPa
Press
MSL
hPa
Rain
since 9 am
mm
Dir
 
Spd
km/h
Gust
km/h
Spd
kts
Gust
kts
18/11:55pm 13.8 6.9 11.7 87 1.1 SW 39 52 21 28 1015.1 - 1.4
18/11:30pm 14.0 5.6 9.7 75 2.2 W 44 56 24 30 1014.7 - 0.8
18/11:00pm 13.8 5.0 9.5 75 2.2 W 46 59 25 32 1014.8 - 0.8
18/10:41pm 14.4 5.7 10.0 75 2.3 W 46 65 25 35 1014.9 - 0.8
18/10:30pm 14.3 4.8 9.9 75 2.3 W 50 61 27 33 1014.8 - 0.8
18/10:00pm 14.7 5.7 10.1 74 2.4 W 48 67 26 36 1014.8 - 0.8
18/09:58pm 14.3 5.6 9.9 75 2.3 W 46 67 25 36 1014.8 - 0.8
18/09:30pm 14.5 6.3 10.3 76 2.2 W 44 57 24 31 1014.8 - 0.8
18/09:00pm 14.8 6.0 11.0 78 2.0 W 48 57 26 31 1014.8 1014.7 0.8
18/08:30pm 15.0 6.9 11.9 82 1.7 WSW 46 59 25 32 1014.5 - 0.8
18/08:00pm 14.9 7.1 11.7 81 1.7 W 44 63 24 34 1014.3 - 0.8
18/07:59pm 14.6 6.9 11.6 82 1.6 W 43 63 23 34 1014.2 - 0.8
18/07:30pm 15.0 8.2 12.1 83 1.6 W 39 46 21 25 1014.1 - 0.8
18/07:00pm 15.2 8.1 12.3 83 1.6 W 41 50 22 27 1013.9 - 0.8
18/06:30pm 15.1 8.8 12.4 84 1.5 W 37 50 20 27 1013.8 - 0.8
18/06:00pm 15.1 9.4 12.9 87 1.2 W 35 46 19 25 1013.8 1013.7 0.8
18/05:30pm 15.3 8.4 12.9 85 1.3 W 41 50 22 27 1013.3 - 0.8
18/05:00pm 15.6 8.1 14.0 90 0.9 WSW 46 57 25 31 1012.7 - 0.6
18/04:42pm 16.4 8.8 13.7 84 1.5 SW 46 74 25 40 1012.3 - 0.0
18/04:30pm 16.6 8.6 13.6 82 1.7 WSW 48 63 26 34 1012.1 - 0.0
18/04:00pm 17.8 7.0 13.6 76 2.4 SW 63 82 34 44 1011.2 - 0.0
18/03:56pm 18.1 8.1 13.7 75 2.5 SW 59 78 32 42 1011.0 - 0.0
18/03:43pm 19.2 8.9 14.0 72 3.0 SW 61 67 33 36 1010.7 - 0.0
18/03:32pm 19.7 12.8 12.8 64 3.9 SW 41 63 22 34 1010.4 - 0.0
18/03:30pm 20.1 14.2 13.7 66 3.7 SW 37 48 20 26 1010.4 - 0.0
18/03:27pm 20.0 14.8 13.5 66 3.7 SW 33 46 18 25 1010.4 - 0.0
18/03:00pm 20.3 16.7 12.9 62 4.2 SSW 24 28 13 15 1010.2 1010.3 0.0
18/02:30pm 21.0 19.3 12.5 58 4.8 WSW 13 20 7 11 1010.3 - 0.0
18/02:00pm 21.5 20.0 13.1 58 4.8 SSW 13 15 7 8 1010.4 - 0.0
18/01:30pm 20.9 17.7 11.8 56 5.1 SW 20 28 11 15 1010.9 - 0.0
18/01:00pm 22.0 18.5 12.3 54 5.5 WSW 22 30 12 16 1011.3 - 0.0
18/12:30pm 21.8 18.8 12.0 53 5.5 WSW 19 24 10 13 1011.6 - 0.0
18/12:00pm 21.4 19.8 12.8 58 4.9 WSW 13 17 7 9 1012.1 1012.2 0.0
18/11:30am 20.6 18.6 12.6 60 4.5 W 15 19 8 10 1012.8 - 0.0
18/11:00am 20.6 18.8 12.2 58 4.7 W 13 20 7 11 1013.2 - 0.0
18/10:30am 20.8 18.6 12.0 57 4.9 WNW 15 19 8 10 1013.4 - 0.0
18/10:00am 19.5 17.4 11.3 59 4.5 WNW 13 17 7 9 1013.8 - 0.0
18/09:30am 18.6 17.1 11.9 65 3.7 WNW 11 15 6 8 1014.1 - 0.0
18/09:00am 17.7 15.9 10.8 64 3.7 NW 11 13 6 7 1014.4 1014.4 0.0
18/08:30am 16.6 14.5 11.2 70 2.9 NW 13 17 7 9 1014.6 - 0.0
18/08:00am 15.3 13.2 12.4 83 1.6 WNW 15 17 8 9 1014.7 - 0.0
18/07:30am 14.8 13.0 12.0 83 1.5 WNW 13 17 7 9 1014.7 - 0.0
18/07:00am 13.9 11.5 11.3 84 1.4 WNW 15 19 8 10 1014.7 - 0.0
18/06:30am 12.9 10.6 11.8 93 0.6 WNW 15 17 8 9 1014.9 - 0.0
18/06:00am 12.6 11.0 11.7 94 0.5 WNW 11 13 6 7 1014.9 1014.9 0.0
18/05:30am 12.7 10.7 11.6 93 0.6 WNW 13 15 7 8 1015.1 - 0.0
18/05:00am 12.8 10.9 11.7 93 0.6 WNW 13 13 7 7 1015.3 - 0.0
18/04:30am 13.0 10.7 11.9 93 0.6 WNW 15 17 8 9 1015.6 - 0.0
18/04:00am 13.3 11.5 12.0 92 0.7 WNW 13 15 7 8 1015.7 - 0.0
18/03:30am 13.6 11.5 12.3 92 0.7 WNW 15 17 8 9 1015.9 - 0.0
18/03:00am 14.2 12.5 12.5 89 0.9 NW 13 15 7 8 1016.2 1016.3 0.0
18/02:30am 14.1 12.4 12.6 91 0.8 NW 13 15 7 8 1016.6 - 0.0
18/02:00am 14.3 12.9 13.4 94 0.5 WNW 13 17 7 9 1016.9 - 0.0
18/01:30am 14.5 12.2 11.7 83 1.5 NW 15 17 8 9 1017.2 - 0.0
18/01:00am 14.4 12.3 12.4 88 1.1 NW 15 17 8 9 1017.6 - 0.0
18/12:30am 14.6 12.9 12.4 87 1.2 NW 13 17 7 9 1017.8 - 0.0
18/12:00am 14.8 12.6 12.2 84 1.4 WNW 15 17 8 9 1018.1 1018.2 0.0
 
Date/Time
EST
Temp
°C
App
Temp
°C
Dew
Point
Rel
Hum
%
Delta-T
°C
Wind Press
QNH
hPa
Press
MSL
hPa
Rain
since 9 am
mm
Dir
 
Spd
km/h
Gust
km/h
Spd
kts
Gust
kts
17/11:30pm 14.7 12.6 12.3 85 1.3 WNW 15 17 8 9 1018.5 - 0.0
17/11:00pm 14.8 12.7 12.4 85 1.3 NW 15 17 8 9 1018.8 - 0.0
17/10:30pm 14.9 12.8 12.5 85 1.3 NW 15 17 8 9 1019.0 - 0.0
17/10:00pm 14.8 13.1 12.6 87 1.2 NW 13 15 7 8 1019.3 - 0.0
17/09:30pm 15.2 13.5 12.6 84 1.4 WNW 13 15 7 8 1019.4 - 0.0
17/09:00pm 16.1 14.4 12.3 78 2.1 WNW 13 15 7 8 1019.4 1019.5 0.0
17/08:30pm 17.0 16.1 11.5 70 3.0 S 7 11 4 6 1019.6 - 0.0
17/08:00pm 17.3 16.4 11.4 68 3.2 SSE 7 11 4 6 1019.5 - 0.0
17/07:30pm 17.6 15.6 11.5 67 3.3 SSE 13 17 7 9 1019.4 - 0.0
17/07:00pm 17.6 15.2 11.5 67 3.3 SSE 15 20 8 11 1019.2 - 0.0
17/06:30pm 17.8 15.7 12.4 70 3.0 SSW 15 19 8 10 1019.1 - 0.0
17/06:00pm 17.7 15.1 12.1 69 3.1 S 17 20 9 11 1019.1 1019.1 0.0
17/05:30pm 17.9 15.5 12.5 70 3.0 SSW 17 20 9 11 1019.2 - 0.0
17/05:00pm 18.4 15.4 12.7 69 3.2 SSW 20 26 11 14 1019.3 - 0.0
17/04:30pm 18.5 15.3 11.8 65 3.7 SSW 20 26 11 14 1019.3 - 0.0
17/04:00pm 18.8 15.3 12.3 66 3.6 SSW 22 26 12 14 1019.4 - 0.0
17/03:30pm 18.8 15.5 11.5 62 4.0 SSW 20 24 11 13 1019.5 - 0.0
17/03:00pm 19.2 16.1 11.5 61 4.2 SW 19 24 10 13 1019.6 1019.6 0.0
17/02:30pm 18.7 14.9 11.1 61 4.1 SSW 22 26 12 14 1019.7 - 0.0
17/02:00pm 19.3 16.3 11.9 62 4.1 SW 19 22 10 12 1019.8 - 0.0
17/01:30pm 19.1 16.1 12.7 66 3.6 SW 20 24 11 13 1019.9 - 0.0
17/01:00pm 18.9 16.1 12.6 67 3.5 WSW 19 24 10 13 1020.1 - 0.0
17/12:30pm 19.1 16.4 13.5 70 3.2 WSW 20 26 11 14 1020.4 - 0.0
17/12:00pm 18.1 15.3 12.5 70 3.1 WSW 19 24 10 13 1020.7 1020.7 0.0
17/11:30am 18.3 15.5 12.7 70 3.1 W 19 22 10 12 1021.0 - 0.0
17/11:00am 18.3 15.5 12.7 70 3.1 W 19 24 10 13 1021.1 - 0.0
17/10:30am 17.9 14.9 12.7 71 2.9 W 20 24 11 13 1021.2 - 0.0
17/10:00am 16.2 14.0 12.2 77 2.2 WNW 15 19 8 10 1021.1 - 0.0
17/09:30am 16.8 13.9 12.4 75 2.4 WNW 19 24 10 13 1021.1 - 0.0
17/09:00am 15.7 12.8 12.2 80 1.9 WNW 19 24 10 13 1021.2 1021.2 0.0
17/08:30am 15.5 12.3 11.8 78 2.0 W 20 26 11 14 1021.1 - 0.0

Other Formats:

Comma delimited format used in spreadsheet applications
http://www.bom.gov.au/fwo/IDN60801/IDN60801.94933.axf

JavaScript Object Notation format (JSON) in row-major order
http://www.bom.gov.au/fwo/IDN60801/IDN60801.94933.json